createdAt,value
2022-09-26T00:01:29.164Z,2.00
2022-09-26T00:03:57.712Z,1.65
2022-09-26T00:06:25.223Z,1.70
2022-09-26T00:08:56.252Z,2.00
2022-09-26T00:11:28.618Z,2.08
2022-09-26T00:13:56.520Z,1.77
2022-09-26T00:16:23.624Z,1.70
2022-09-26T00:18:51.434Z,2.15
2022-09-26T00:21:18.302Z,1.77
2022-09-26T00:23:48.619Z,1.95
2022-09-26T00:26:16.179Z,1.95
2022-09-26T00:28:43.266Z,2.03
2022-09-26T00:31:14.799Z,2.10
2022-09-26T00:33:45.261Z,2.00
2022-09-26T00:36:12.332Z,1.60
2022-09-26T00:38:42.810Z,2.08
2022-09-26T00:41:09.739Z,1.80
2022-09-26T00:43:41.037Z,1.90
2022-09-26T00:46:17.062Z,1.58
2022-09-26T00:48:48.129Z,1.58
2022-09-26T00:51:18.209Z,2.10
2022-09-26T00:53:47.105Z,1.63
2022-09-26T00:56:19.380Z,2.00
2022-09-26T00:58:48.698Z,1.98
2022-09-26T01:01:19.394Z,1.90
2022-09-26T01:03:48.046Z,1.80
2022-09-26T01:06:18.710Z,1.88
2022-09-26T01:08:56.294Z,1.65
2022-09-26T01:11:23.138Z,1.52
2022-09-26T01:13:52.223Z,1.45
2022-09-26T01:16:19.166Z,1.45
2022-09-26T01:18:48.010Z,1.65
2022-09-26T01:21:33.239Z,1.50
2022-09-26T01:24:35.875Z,1.80
2022-09-26T01:27:08.762Z,1.83
2022-09-26T01:29:53.971Z,2.15
2022-09-26T01:32:51.212Z,1.90
2022-09-26T01:35:18.489Z,1.63
2022-09-26T01:37:59.683Z,1.95
2022-09-26T01:40:32.387Z,1.77
2022-09-26T01:43:07.177Z,1.40
2022-09-26T01:45:41.558Z,1.42
2022-09-26T01:48:08.431Z,1.70
2022-09-26T01:50:43.989Z,1.60
2022-09-26T01:53:15.463Z,1.83
2022-09-26T01:56:01.854Z,1.80
2022-09-26T01:58:31.540Z,1.42
2022-09-26T02:01:01.513Z,1.67
2022-09-26T02:03:31.353Z,1.77
2022-09-26T02:06:00.668Z,1.90
2022-09-26T02:08:39.253Z,1.52
2022-09-26T02:11:10.638Z,1.67
2022-09-26T02:13:46.935Z,1.77
2022-09-26T02:16:33.943Z,2.10
2022-09-26T02:19:04.622Z,1.92
2022-09-26T02:21:34.587Z,1.80
2022-09-26T02:24:02.116Z,1.65
2022-09-26T02:26:29.347Z,1.65
2022-09-26T02:28:56.716Z,1.92
2022-09-26T02:31:31.509Z,1.58
2022-09-26T02:33:58.464Z,1.77
2022-09-26T02:36:30.653Z,1.95
2022-09-26T02:38:57.498Z,2.17
2022-09-26T02:41:43.578Z,2.20
2022-09-26T02:44:19.266Z,1.92
2022-09-26T02:46:46.139Z,1.65
2022-09-26T02:49:16.421Z,2.08
2022-09-26T02:51:44.651Z,1.65
2022-09-26T02:54:14.730Z,1.77
2022-09-26T02:56:47.540Z,1.52
2022-09-26T02:59:23.739Z,2.13
2022-09-26T03:01:54.331Z,1.98
2022-09-26T03:04:36.313Z,1.70
2022-09-26T03:07:08.221Z,1.45
2022-09-26T03:09:37.541Z,1.83
2022-09-26T03:12:12.900Z,2.17
2022-09-26T03:14:41.947Z,1.85
2022-09-26T03:17:09.694Z,1.90
2022-09-26T03:19:40.259Z,1.70
2022-09-26T03:22:09.473Z,1.35
2022-09-26T03:24:36.905Z,1.73
2022-09-26T03:27:05.440Z,1.48
2022-09-26T03:29:35.034Z,1.25
2022-09-26T03:32:02.258Z,1.40
2022-09-26T03:34:29.059Z,1.70
2022-09-26T03:36:55.914Z,1.70
2022-09-26T03:39:22.892Z,1.58
2022-09-26T03:41:51.423Z,1.70
2022-09-26T03:44:18.301Z,1.92
2022-09-26T03:46:47.706Z,1.70
2022-09-26T03:49:17.995Z,1.40
2022-09-26T03:51:44.850Z,1.75
2022-09-26T03:54:12.436Z,1.50
2022-09-26T03:56:39.475Z,1.40
2022-09-26T03:59:06.800Z,1.58
2022-09-26T04:01:33.769Z,2.00
2022-09-26T04:04:01.019Z,1.52
2022-09-26T04:06:27.832Z,1.50
2022-09-26T04:08:54.625Z,1.52
2022-09-26T04:11:22.238Z,1.58
2022-09-26T04:13:53.562Z,1.70
2022-09-26T04:16:23.261Z,1.58
2022-09-26T04:18:54.505Z,1.83
2022-09-26T04:21:24.354Z,1.60
2022-09-26T04:23:55.223Z,1.73
2022-09-26T04:26:24.248Z,1.60
2022-09-26T04:28:55.403Z,1.85
2022-09-26T04:31:25.687Z,1.63
2022-09-26T04:33:55.893Z,1.48
2022-09-26T04:36:23.266Z,1.83
2022-09-26T04:38:50.315Z,1.50
2022-09-26T04:41:21.023Z,1.70
2022-09-26T04:43:48.347Z,1.25
2022-09-26T04:46:22.254Z,1.27
2022-09-26T04:48:50.502Z,1.38
2022-09-26T04:51:20.548Z,0.98
2022-09-26T04:53:47.912Z,1.30
2022-09-26T04:56:15.967Z,1.50
2022-09-26T04:58:47.222Z,1.20
2022-09-26T05:01:18.108Z,1.10
2022-09-26T05:03:45.157Z,1.27
2022-09-26T05:06:12.672Z,1.35
2022-09-26T05:08:41.355Z,1.25
2022-09-26T05:11:09.025Z,1.40
2022-09-26T05:13:38.034Z,1.50
2022-09-26T05:16:09.320Z,1.17
2022-09-26T05:18:36.659Z,1.35
2022-09-26T05:21:04.142Z,1.30
2022-09-26T05:23:49.800Z,1.20
2022-09-26T05:26:22.600Z,1.25
2022-09-26T05:28:55.419Z,1.48
2022-09-26T05:31:26.483Z,1.17
2022-09-26T05:33:58.917Z,1.10
2022-09-26T05:36:26.325Z,1.17
2022-09-26T05:38:56.589Z,1.08
2022-09-26T05:41:23.394Z,1.00
2022-09-26T05:43:50.220Z,0.85
2022-09-26T05:46:17.051Z,0.82
2022-09-26T05:48:44.140Z,1.10
2022-09-26T05:51:19.789Z,1.10
2022-09-26T05:53:49.587Z,1.10
2022-09-26T05:56:20.026Z,1.02
2022-09-26T05:58:47.467Z,1.10
2022-09-26T06:01:15.889Z,0.80
2022-09-26T06:03:46.735Z,1.00
2022-09-26T06:06:17.707Z,0.90
2022-09-26T06:08:48.073Z,0.88
2022-09-26T06:11:16.414Z,0.93
2022-09-26T06:13:46.028Z,1.05
2022-09-26T06:16:18.695Z,0.90
2022-09-26T06:18:47.264Z,0.90
2022-09-26T06:21:15.708Z,0.90
2022-09-26T06:23:45.453Z,0.90
2022-09-26T06:26:15.240Z,1.05
2022-09-26T06:28:42.028Z,1.33
2022-09-26T06:31:12.409Z,1.10
2022-09-26T06:33:39.180Z,0.73
2022-09-26T06:36:07.698Z,1.10
2022-09-26T06:38:35.564Z,1.15
2022-09-26T06:41:05.961Z,1.67
2022-09-26T06:43:34.134Z,1.30
2022-09-26T06:46:01.294Z,1.92
2022-09-26T06:48:28.269Z,1.67
2022-09-26T06:51:00.753Z,2.03
2022-09-26T06:53:28.214Z,1.50
2022-09-26T06:55:55.278Z,1.40
2022-09-26T06:58:22.392Z,2.47
2022-09-26T07:00:49.414Z,2.03
2022-09-26T07:03:16.260Z,2.10
2022-09-26T07:05:45.633Z,1.70
2022-09-26T07:08:12.555Z,1.60
2022-09-26T07:10:42.015Z,1.63
2022-09-26T07:13:09.674Z,1.83
2022-09-26T07:15:37.417Z,1.92
2022-09-26T07:18:08.003Z,1.88
2022-09-26T07:20:37.210Z,1.77
2022-09-26T07:23:05.286Z,1.80
2022-09-26T07:25:36.790Z,1.30
2022-09-26T07:28:05.753Z,1.23
2022-09-26T07:30:32.658Z,1.58
2022-09-26T07:33:03.494Z,1.80
2022-09-26T07:35:31.553Z,2.38
2022-09-26T07:38:02.688Z,1.88
2022-09-26T07:40:29.715Z,2.08
2022-09-26T07:43:18.619Z,2.33
2022-09-26T07:46:09.097Z,1.83
2022-09-26T07:48:54.676Z,1.80
2022-09-26T07:51:23.404Z,1.90
2022-09-26T07:53:50.410Z,2.05
2022-09-26T07:56:17.172Z,1.75
2022-09-26T07:58:44.197Z,1.70
2022-09-26T08:01:12.462Z,1.98
2022-09-26T08:03:40.033Z,1.60
2022-09-26T08:06:07.523Z,1.85
2022-09-26T08:08:37.442Z,1.63
2022-09-26T08:11:06.237Z,1.80
2022-09-26T08:13:33.507Z,1.58
2022-09-26T08:16:04.932Z,1.77
2022-09-26T08:18:33.357Z,1.85
2022-09-26T08:21:02.541Z,1.65
2022-09-26T08:23:29.922Z,2.20
2022-09-26T08:25:56.803Z,1.60
2022-09-26T08:28:27.728Z,1.90
2022-09-26T08:30:57.668Z,1.35
2022-09-26T08:33:25.509Z,1.90
2022-09-26T08:35:52.434Z,1.20
2022-09-26T08:38:19.347Z,1.88
2022-09-26T08:41:04.921Z,1.55
2022-09-26T08:43:43.099Z,1.90
2022-09-26T08:46:16.110Z,1.92
2022-09-26T08:48:54.996Z,1.25
2022-09-26T08:51:32.070Z,1.35
2022-09-26T08:54:18.266Z,1.35
2022-09-26T08:56:53.974Z,1.50
2022-09-26T08:59:39.548Z,1.50
2022-09-26T09:02:15.380Z,1.58
2022-09-26T09:04:53.638Z,1.80
2022-09-26T09:07:26.732Z,1.52
2022-09-26T09:10:10.015Z,1.80
2022-09-26T09:12:37.816Z,1.63
2022-09-26T09:15:25.989Z,1.85
2022-09-26T09:17:56.231Z,1.80
2022-09-26T09:20:45.490Z,1.88
2022-09-26T09:23:18.297Z,1.60
2022-09-26T09:25:48.534Z,1.35
2022-09-26T09:28:19.289Z,1.77
2022-09-26T09:30:51.932Z,1.88
2022-09-26T09:33:19.022Z,1.83
2022-09-26T09:36:09.049Z,1.30
2022-09-26T09:38:40.493Z,1.17
2022-09-26T09:41:28.978Z,1.42
2022-09-26T09:43:57.716Z,1.60
2022-09-26T09:46:29.535Z,1.13
2022-09-26T09:49:16.585Z,1.20
2022-09-26T09:51:46.947Z,1.45
2022-09-26T09:54:25.878Z,1.27
2022-09-26T09:57:08.301Z,1.25
2022-09-26T09:59:38.621Z,1.25
2022-09-26T10:02:24.531Z,2.08
2022-09-26T10:04:58.965Z,1.48
2022-09-26T10:07:26.946Z,1.90
2022-09-26T10:09:57.295Z,1.40
2022-09-26T10:12:29.683Z,1.48
2022-09-26T10:15:00.220Z,1.70
2022-09-26T10:17:27.967Z,1.55
2022-09-26T10:19:57.755Z,1.48
2022-09-26T10:22:30.705Z,1.60
2022-09-26T10:25:05.704Z,1.00
2022-09-26T10:27:47.322Z,1.15
2022-09-26T10:30:20.307Z,1.15
2022-09-26T10:32:55.413Z,1.33
2022-09-26T10:35:25.543Z,1.02
2022-09-26T10:37:58.348Z,1.23
2022-09-26T10:40:53.296Z,1.17
2022-09-26T10:43:30.879Z,1.15
2022-09-26T10:46:06.712Z,1.38
2022-09-26T10:48:49.104Z,1.33
2022-09-26T10:51:22.127Z,1.30
2022-09-26T10:53:52.487Z,1.23
2022-09-26T10:56:27.157Z,1.50
2022-09-26T10:58:59.139Z,1.10
2022-09-26T11:01:32.261Z,1.38
2022-09-26T11:04:14.692Z,1.27
2022-09-26T11:06:47.230Z,1.48
2022-09-26T11:09:22.063Z,1.60
2022-09-26T11:11:54.180Z,1.40
2022-09-26T11:14:28.238Z,1.30
